« 定点 富山空港 2019/10/13 sun | トップページ | 定点 富山空港 2019/10/17 thu »

2019/10/14

撃鉄2 小松飛行場 2019/10/10 thu

記事を書いているのが14日。台風一過で青空と思いきや、いきなり冬型になって雨が降ったり止んだり。被災地の皆さんには申し訳けないが、やっぱり青空が欲しいこの頃。

さて、一陣が出発した後で、ランチェン。普段は06エンドに行くことが無いのですが、この日は廻ってみました。

RJNK 100100Z 32003KT 230V020 9999 FEW250 20/12 Q1017

20191010_rjnk_49ja332j

JAL185 RJTT-RJNT JA332J B737-846

20191010_rjnk_50ja11rj

IBX61 RJSS-RJNK JA11RJ CRJ-702ER

20191010_rjnk_51h784604

78-4604 UH-60JII KOMATSU-ARS F42

20191010_rjnk_52f428844

42-8844 F-15J 303SQ M03

20191010_rjnk_53f428837

42-8937 F-15J 303SQ M04

20191010_rjnk_54f528951

次の編隊がギアダウンしたところで・・ ホット・スクランブル

20191010_rjnk_55f528951

52-8951 F-15J 303SQ M01 G/Aして行きます

20191010_rjnk_56f228056

22-8056 F-15DJ 303SQ M02 僚機も続きます

RJNK 100200Z 32004KT 280V010 9999 FEW250 21/12 Q1016

20191010_rjnk_57f128803

12-8803 F-15J 303SQ M29

20191010_rjnk_58f128803

RW24からアラート上がりです。

20191010_rjnk_59f528850

52-8850 F-15J 303SQ M30

20191010_rjnk_60f528850

今日は、なんやろ?

20191010_rjnk_61f528951

52-8951 リエンターして着陸

20191010_rjnk_62f228056

22-8056 青空が眩しい

20191010_rjnk_63ja893f

JA893F B412EP 石川県防災

20191010_rjnk_64f328817

32-8817 F-15J 303SQ M05

20191010_rjnk_65f528859

52-8859 F-15J 303SQ M06

20191010_rjnk_66f328816

32-8816 F-15J 303SQ M07

20191010_rjnk_67f328819

32-8819 F-15J 303SQ M08

20191010_rjnk_68f178437

17-8437 F-4EJk 301SQ RISER23

20191010_rjnk_69f778395

77-8395 F-4EJk 301SQ RISER24

20191010_rjnk_70ja3951

JA3951 C172 DAK

20191010_rjnk_71ja8669

ANA753 RJTT-RJNK JA8669 B767-381

20191010_rjnk_72lxvcj

ここでカーゴルクスさん出発

20191010_rjnk_73lxvcj

CLX9763 RJNK-PANC LX-VCJ B747-8R7F

20191010_rjnk_74lxvcj

20191010_rjnk_75f428947

一番に上がっていた犬鷲がようやく帰ってきた

20191010_rjnk_76f428947

42-8947 F-15J 306SQ J21

20191010_rjnk_77f15

92-8911 F-15J 306SQ J22

20191010_rjnk_78f328087

32-8097 F-15DJ 306SQ J23

20191010_rjnk_79f728961

72-8961 F-15J 306SQ J24

RJNK 100300Z 33004KT 270V020 9999 FEW250 22/11 Q1016

20191010_rjnk_80f128803

12-8803  アラート機帰還

20191010_rjnk_81f528850

52-8803  接触はなかったのかな?

20191010_rjnk_82ja8669

ANA1173 RJNK-RJCC JA8669 B767-381

20191010_rjnk_83b6431

CSE557 ZSPD-RJNK B-6431 A319-115

RJNK 100400Z 35006KT 310V030 9999 FEW050 23/13 Q1014

20191010_rjnk_84f998716

99-8716 F-35A MHI STRIKER11

本日は、これも目当てで来ていたのですが、雷神様に認められなかったようで、使える写真が撮れていません。ですが、初めて聞く雷鳴に酔い痴れました。

20191010_rjnk_85t415053

41-5053 T-400 41FTS T/G R53

20191010_rjnk_86ja05rk

JTA36 ROAH-RJNK JA05RK B737-8Q3

これにて06エンドを離れて24に戻ります。

20191010_rjnk_87f428947

道中、午後のフライトの上がりを眺めながら #947

20191010_rjnk_88f728961

#961

20191010_rjnk_89b6431

CSE558 RJNK-ZSPD B-6431 A319-115

20191010_rjnk_90f15

この日は、まだまだ飛びそうでしたが、撤収

20191010_rjnk_91f328087

また青空の日に訪れたいですね。 #087

 

|

« 定点 富山空港 2019/10/13 sun | トップページ | 定点 富山空港 2019/10/17 thu »

小松飛行場」カテゴリの記事

コメント

コメントを書く



(ウェブ上には掲載しません)


コメントは記事投稿者が公開するまで表示されません。



« 定点 富山空港 2019/10/13 sun | トップページ | 定点 富山空港 2019/10/17 thu »